sensor_id;sensor_type;location;lat;lon;timestamp;P1;durP1;ratioP1;P2;durP2;ratioP2
18411;SDS011;27097;51.738;19.472;2023-05-09T00:00:30;10.55;;;5.97;;
18411;SDS011;27097;51.738;19.472;2023-05-09T00:02:57;14.32;;;6.22;;
18411;SDS011;27097;51.738;19.472;2023-05-09T00:05:23;10.38;;;5.82;;
18411;SDS011;27097;51.738;19.472;2023-05-09T00:07:51;13.38;;;6.15;;
18411;SDS011;27097;51.738;19.472;2023-05-09T00:10:17;12.45;;;6.18;;
18411;SDS011;27097;51.738;19.472;2023-05-09T00:12:44;17.02;;;5.93;;
18411;SDS011;27097;51.738;19.472;2023-05-09T00:15:14;13.65;;;5.95;;
18411;SDS011;27097;51.738;19.472;2023-05-09T00:17:43;14.00;;;6.50;;
18411;SDS011;27097;51.738;19.472;2023-05-09T00:20:10;12.95;;;5.97;;
18411;SDS011;27097;51.738;19.472;2023-05-09T00:22:38;11.00;;;5.88;;
18411;SDS011;27097;51.738;19.472;2023-05-09T00:25:06;14.13;;;6.18;;
18411;SDS011;27097;51.738;19.472;2023-05-09T00:27:33;12.00;;;5.72;;
18411;SDS011;27097;51.738;19.472;2023-05-09T00:30:00;12.93;;;6.25;;
18411;SDS011;27097;51.738;19.472;2023-05-09T00:32:30;14.43;;;5.90;;
18411;SDS011;27097;51.738;19.472;2023-05-09T00:34:57;11.07;;;5.70;;
18411;SDS011;27097;51.738;19.472;2023-05-09T00:37:24;11.48;;;5.35;;
18411;SDS011;27097;51.738;19.472;2023-05-09T00:39:51;16.35;;;6.10;;
18411;SDS011;27097;51.738;19.472;2023-05-09T00:42:17;10.63;;;5.63;;
18411;SDS011;27097;51.738;19.472;2023-05-09T00:44:44;10.32;;;5.82;;
18411;SDS011;27097;51.738;19.472;2023-05-09T00:47:11;12.65;;;5.68;;
18411;SDS011;27097;51.738;19.472;2023-05-09T00:49:39;9.95;;;5.50;;
18411;SDS011;27097;51.738;19.472;2023-05-09T00:52:06;10.75;;;5.50;;
18411;SDS011;27097;51.738;19.472;2023-05-09T00:54:33;11.00;;;5.63;;
18411;SDS011;27097;51.738;19.472;2023-05-09T00:57:00;9.55;;;5.63;;
18411;SDS011;27097;51.738;19.472;2023-05-09T00:59:27;10.10;;;5.38;;
18411;SDS011;27097;51.738;19.472;2023-05-09T01:01:54;10.75;;;5.60;;
18411;SDS011;27097;51.738;19.472;2023-05-09T01:04:21;12.50;;;5.32;;
18411;SDS011;27097;51.738;19.472;2023-05-09T01:06:52;11.25;;;5.55;;
18411;SDS011;27097;51.738;19.472;2023-05-09T01:09:28;11.93;;;5.60;;
18411;SDS011;27097;51.738;19.472;2023-05-09T01:12:05;12.05;;;5.30;;
18411;SDS011;27097;51.738;19.472;2023-05-09T01:14:40;13.35;;;5.43;;
18411;SDS011;27097;51.738;19.472;2023-05-09T01:17:13;11.05;;;5.40;;
18411;SDS011;27097;51.738;19.472;2023-05-09T01:19:52;9.02;;;5.55;;
18411;SDS011;27097;51.738;19.472;2023-05-09T01:22:26;9.35;;;5.22;;
18411;SDS011;27097;51.738;19.472;2023-05-09T01:27:37;22.95;;;5.30;;
18411;SDS011;27097;51.738;19.472;2023-05-09T01:30:12;9.45;;;5.13;;
18411;SDS011;27097;51.738;19.472;2023-05-09T01:32:41;12.15;;;5.30;;
18411;SDS011;27097;51.738;19.472;2023-05-09T01:35:10;8.02;;;5.03;;
18411;SDS011;27097;51.738;19.472;2023-05-09T01:37:40;11.60;;;5.15;;
18411;SDS011;27097;51.738;19.472;2023-05-09T01:40:10;10.90;;;5.15;;
18411;SDS011;27097;51.738;19.472;2023-05-09T01:42:41;10.00;;;4.90;;
18411;SDS011;27097;51.738;19.472;2023-05-09T01:51:30;9.73;;;5.15;;
18411;SDS011;27097;51.738;19.472;2023-05-09T01:53:59;10.07;;;5.00;;
18411;SDS011;27097;51.738;19.472;2023-05-09T01:56:27;10.10;;;4.88;;
18411;SDS011;27097;51.738;19.472;2023-05-09T01:58:55;8.90;;;5.05;;
18411;SDS011;27097;51.738;19.472;2023-05-09T02:01:24;10.65;;;4.95;;
18411;SDS011;27097;51.738;19.472;2023-05-09T02:03:51;9.18;;;4.85;;
18411;SDS011;27097;51.738;19.472;2023-05-09T02:06:21;11.35;;;4.28;;
18411;SDS011;27097;51.738;19.472;2023-05-09T02:08:50;7.68;;;4.65;;
18411;SDS011;27097;51.738;19.472;2023-05-09T02:11:17;7.10;;;4.40;;
18411;SDS011;27097;51.738;19.472;2023-05-09T02:13:44;8.82;;;4.45;;
18411;SDS011;27097;51.738;19.472;2023-05-09T02:18:36;10.68;;;4.72;;
18411;SDS011;27097;51.738;19.472;2023-05-09T02:21:03;8.15;;;4.80;;
18411;SDS011;27097;51.738;19.472;2023-05-09T02:23:31;11.35;;;5.07;;
18411;SDS011;27097;51.738;19.472;2023-05-09T02:25:59;9.20;;;4.93;;
18411;SDS011;27097;51.738;19.472;2023-05-09T02:28:27;12.45;;;4.85;;
18411;SDS011;27097;51.738;19.472;2023-05-09T02:30:54;8.55;;;4.40;;
18411;SDS011;27097;51.738;19.472;2023-05-09T02:33:24;8.50;;;4.50;;
18411;SDS011;27097;51.738;19.472;2023-05-09T02:35:52;8.35;;;4.72;;
18411;SDS011;27097;51.738;19.472;2023-05-09T02:38:19;9.05;;;4.53;;
18411;SDS011;27097;51.738;19.472;2023-05-09T02:40:46;9.90;;;4.60;;
18411;SDS011;27097;51.738;19.472;2023-05-09T02:43:16;10.88;;;5.10;;
18411;SDS011;27097;51.738;19.472;2023-05-09T02:45:43;7.78;;;4.32;;
18411;SDS011;27097;51.738;19.472;2023-05-09T02:48:10;10.18;;;5.05;;
18411;SDS011;27097;51.738;19.472;2023-05-09T02:50:37;9.77;;;4.28;;
18411;SDS011;27097;51.738;19.472;2023-05-09T02:53:06;9.35;;;4.57;;
18411;SDS011;27097;51.738;19.472;2023-05-09T02:55:33;14.65;;;4.75;;
18411;SDS011;27097;51.738;19.472;2023-05-09T02:58:00;7.88;;;4.38;;
18411;SDS011;27097;51.738;19.472;2023-05-09T03:00:29;9.35;;;4.63;;
18411;SDS011;27097;51.738;19.472;2023-05-09T03:02:55;9.65;;;4.38;;
18411;SDS011;27097;51.738;19.472;2023-05-09T03:05:24;12.10;;;4.50;;
18411;SDS011;27097;51.738;19.472;2023-05-09T03:07:50;8.90;;;4.88;;
18411;SDS011;27097;51.738;19.472;2023-05-09T03:10:17;10.90;;;4.35;;
18411;SDS011;27097;51.738;19.472;2023-05-09T03:12:44;13.05;;;4.72;;
18411;SDS011;27097;51.738;19.472;2023-05-09T03:15:11;8.50;;;4.57;;
18411;SDS011;27097;51.738;19.472;2023-05-09T03:17:40;9.27;;;4.50;;
18411;SDS011;27097;51.738;19.472;2023-05-09T03:20:07;8.77;;;4.90;;
18411;SDS011;27097;51.738;19.472;2023-05-09T03:22:35;7.45;;;4.53;;
18411;SDS011;27097;51.738;19.472;2023-05-09T03:25:02;10.23;;;4.72;;
18411;SDS011;27097;51.738;19.472;2023-05-09T03:27:30;8.05;;;4.45;;
18411;SDS011;27097;51.738;19.472;2023-05-09T03:29:57;8.52;;;4.30;;
18411;SDS011;27097;51.738;19.472;2023-05-09T03:32:25;6.35;;;4.28;;
18411;SDS011;27097;51.738;19.472;2023-05-09T03:34:53;8.60;;;4.10;;
18411;SDS011;27097;51.738;19.472;2023-05-09T03:37:21;8.43;;;4.10;;
18411;SDS011;27097;51.738;19.472;2023-05-09T03:39:48;7.32;;;4.30;;
18411;SDS011;27097;51.738;19.472;2023-05-09T03:42:15;8.55;;;4.40;;
18411;SDS011;27097;51.738;19.472;2023-05-09T03:44:42;9.80;;;4.57;;
18411;SDS011;27097;51.738;19.472;2023-05-09T03:47:08;7.18;;;4.22;;
18411;SDS011;27097;51.738;19.472;2023-05-09T03:49:35;8.57;;;4.40;;
18411;SDS011;27097;51.738;19.472;2023-05-09T03:52:04;7.57;;;4.30;;
18411;SDS011;27097;51.738;19.472;2023-05-09T03:54:30;13.00;;;4.75;;
18411;SDS011;27097;51.738;19.472;2023-05-09T03:56:57;6.35;;;4.20;;
18411;SDS011;27097;51.738;19.472;2023-05-09T03:59:24;8.73;;;4.13;;
18411;SDS011;27097;51.738;19.472;2023-05-09T04:01:51;9.15;;;4.22;;
18411;SDS011;27097;51.738;19.472;2023-05-09T04:04:18;6.80;;;4.40;;
18411;SDS011;27097;51.738;19.472;2023-05-09T04:06:45;7.05;;;4.30;;
18411;SDS011;27097;51.738;19.472;2023-05-09T04:09:14;6.80;;;4.28;;
18411;SDS011;27097;51.738;19.472;2023-05-09T04:11:40;7.22;;;4.22;;
18411;SDS011;27097;51.738;19.472;2023-05-09T04:14:07;7.78;;;4.32;;
18411;SDS011;27097;51.738;19.472;2023-05-09T04:16:34;7.03;;;4.63;;
18411;SDS011;27097;51.738;19.472;2023-05-09T04:19:01;6.22;;;3.83;;
18411;SDS011;27097;51.738;19.472;2023-05-09T04:21:28;7.75;;;4.00;;
18411;SDS011;27097;51.738;19.472;2023-05-09T04:23:55;9.77;;;3.85;;
18411;SDS011;27097;51.738;19.472;2023-05-09T04:26:24;6.60;;;3.97;;
18411;SDS011;27097;51.738;19.472;2023-05-09T04:28:51;7.20;;;4.00;;
18411;SDS011;27097;51.738;19.472;2023-05-09T04:31:18;6.78;;;4.07;;
18411;SDS011;27097;51.738;19.472;2023-05-09T04:33:45;7.20;;;4.07;;
18411;SDS011;27097;51.738;19.472;2023-05-09T04:36:12;9.70;;;4.28;;
18411;SDS011;27097;51.738;19.472;2023-05-09T04:38:38;9.07;;;4.57;;
18411;SDS011;27097;51.738;19.472;2023-05-09T04:41:05;7.15;;;4.43;;
18411;SDS011;27097;51.738;19.472;2023-05-09T04:43:33;7.78;;;4.13;;
18411;SDS011;27097;51.738;19.472;2023-05-09T04:46:00;7.53;;;3.90;;
18411;SDS011;27097;51.738;19.472;2023-05-09T04:48:27;8.38;;;4.10;;
18411;SDS011;27097;51.738;19.472;2023-05-09T04:50:54;8.40;;;4.38;;
18411;SDS011;27097;51.738;19.472;2023-05-09T04:53:21;8.88;;;4.03;;
18411;SDS011;27097;51.738;19.472;2023-05-09T04:55:48;7.30;;;3.80;;
18411;SDS011;27097;51.738;19.472;2023-05-09T04:58:15;6.75;;;3.90;;
18411;SDS011;27097;51.738;19.472;2023-05-09T05:00:44;9.05;;;3.83;;
18411;SDS011;27097;51.738;19.472;2023-05-09T05:03:14;6.28;;;3.70;;
18411;SDS011;27097;51.738;19.472;2023-05-09T05:06:08;8.27;;;3.97;;
18411;SDS011;27097;51.738;19.472;2023-05-09T05:08:35;9.07;;;4.00;;
18411;SDS011;27097;51.738;19.472;2023-05-09T05:11:02;8.43;;;4.05;;
18411;SDS011;27097;51.738;19.472;2023-05-09T05:13:29;6.70;;;3.88;;
18411;SDS011;27097;51.738;19.472;2023-05-09T05:15:57;7.85;;;4.10;;
18411;SDS011;27097;51.738;19.472;2023-05-09T05:18:24;5.85;;;4.00;;
18411;SDS011;27097;51.738;19.472;2023-05-09T05:20:51;5.70;;;3.78;;
18411;SDS011;27097;51.738;19.472;2023-05-09T05:23:18;7.97;;;4.00;;
18411;SDS011;27097;51.738;19.472;2023-05-09T05:25:45;9.07;;;3.85;;
18411;SDS011;27097;51.738;19.472;2023-05-09T05:28:11;7.25;;;3.90;;
18411;SDS011;27097;51.738;19.472;2023-05-09T05:30:38;11.32;;;4.10;;
18411;SDS011;27097;51.738;19.472;2023-05-09T05:33:07;8.13;;;4.05;;
18411;SDS011;27097;51.738;19.472;2023-05-09T05:38:30;11.65;;;3.80;;
18411;SDS011;27097;51.738;19.472;2023-05-09T05:40:57;13.07;;;4.28;;
18411;SDS011;27097;51.738;19.472;2023-05-09T05:43:24;8.70;;;4.00;;
18411;SDS011;27097;51.738;19.472;2023-05-09T05:45:51;9.32;;;4.22;;
18411;SDS011;27097;51.738;19.472;2023-05-09T05:51:39;9.90;;;4.20;;
18411;SDS011;27097;51.738;19.472;2023-05-09T05:54:06;13.63;;;4.10;;
18411;SDS011;27097;51.738;19.472;2023-05-09T05:56:35;15.07;;;4.50;;
18411;SDS011;27097;51.738;19.472;2023-05-09T06:05:26;17.98;;;4.60;;
18411;SDS011;27097;51.738;19.472;2023-05-09T06:07:55;14.75;;;4.80;;
18411;SDS011;27097;51.738;19.472;2023-05-09T06:10:24;7.82;;;4.22;;
18411;SDS011;27097;51.738;19.472;2023-05-09T06:12:50;12.50;;;4.55;;
18411;SDS011;27097;51.738;19.472;2023-05-09T06:15:20;21.73;;;5.00;;
18411;SDS011;27097;51.738;19.472;2023-05-09T06:17:47;12.88;;;4.78;;
18411;SDS011;27097;51.738;19.472;2023-05-09T06:25:26;11.45;;;4.40;;
18411;SDS011;27097;51.738;19.472;2023-05-09T06:27:56;16.85;;;4.28;;
18411;SDS011;27097;51.738;19.472;2023-05-09T06:30:37;15.77;;;4.45;;
18411;SDS011;27097;51.738;19.472;2023-05-09T06:33:21;13.55;;;4.18;;
18411;SDS011;27097;51.738;19.472;2023-05-09T06:35:54;15.38;;;4.40;;
18411;SDS011;27097;51.738;19.472;2023-05-09T06:42:00;12.25;;;4.20;;
18411;SDS011;27097;51.738;19.472;2023-05-09T06:44:30;14.75;;;3.90;;
18411;SDS011;27097;51.738;19.472;2023-05-09T07:04:30;13.30;;;3.65;;
18411;SDS011;27097;51.738;19.472;2023-05-09T07:06:57;15.10;;;4.05;;
18411;SDS011;27097;51.738;19.472;2023-05-09T07:09:24;13.80;;;3.78;;
18411;SDS011;27097;51.738;19.472;2023-05-09T07:11:52;14.07;;;3.72;;
18411;SDS011;27097;51.738;19.472;2023-05-09T07:14:19;10.68;;;3.70;;
18411;SDS011;27097;51.738;19.472;2023-05-09T07:16:46;12.65;;;3.60;;
18411;SDS011;27097;51.738;19.472;2023-05-09T07:19:13;8.15;;;3.70;;
18411;SDS011;27097;51.738;19.472;2023-05-09T07:21:55;9.20;;;3.30;;
18411;SDS011;27097;51.738;19.472;2023-05-09T07:24:22;17.30;;;3.40;;
18411;SDS011;27097;51.738;19.472;2023-05-09T07:26:49;11.23;;;3.50;;
18411;SDS011;27097;51.738;19.472;2023-05-09T07:29:21;10.20;;;3.88;;
18411;SDS011;27097;51.738;19.472;2023-05-09T07:31:48;8.82;;;3.20;;
18411;SDS011;27097;51.738;19.472;2023-05-09T07:34:15;13.10;;;3.70;;
18411;SDS011;27097;51.738;19.472;2023-05-09T07:36:43;11.48;;;3.33;;
18411;SDS011;27097;51.738;19.472;2023-05-09T07:39:12;7.10;;;3.35;;
18411;SDS011;27097;51.738;19.472;2023-05-09T07:41:40;11.18;;;3.00;;
18411;SDS011;27097;51.738;19.472;2023-05-09T07:44:12;8.85;;;3.60;;
18411;SDS011;27097;51.738;19.472;2023-05-09T07:49:32;10.63;;;3.40;;
18411;SDS011;27097;51.738;19.472;2023-05-09T07:54:32;11.23;;;3.13;;
18411;SDS011;27097;51.738;19.472;2023-05-09T07:57:05;12.90;;;3.20;;
18411;SDS011;27097;51.738;19.472;2023-05-09T08:02:29;12.68;;;3.13;;
18411;SDS011;27097;51.738;19.472;2023-05-09T08:04:56;10.85;;;2.80;;
18411;SDS011;27097;51.738;19.472;2023-05-09T08:07:23;14.45;;;3.30;;
18411;SDS011;27097;51.738;19.472;2023-05-09T08:09:51;8.65;;;2.92;;
18411;SDS011;27097;51.738;19.472;2023-05-09T08:12:18;13.25;;;3.20;;
18411;SDS011;27097;51.738;19.472;2023-05-09T08:14:48;9.82;;;2.83;;
18411;SDS011;27097;51.738;19.472;2023-05-09T08:17:14;8.48;;;2.83;;
18411;SDS011;27097;51.738;19.472;2023-05-09T08:19:41;6.25;;;2.50;;
18411;SDS011;27097;51.738;19.472;2023-05-09T08:22:15;25.10;;;3.25;;
18411;SDS011;27097;51.738;19.472;2023-05-09T08:24:45;8.00;;;2.70;;
18411;SDS011;27097;51.738;19.472;2023-05-09T08:27:13;5.90;;;3.00;;
18411;SDS011;27097;51.738;19.472;2023-05-09T08:29:40;11.40;;;2.90;;
18411;SDS011;27097;51.738;19.472;2023-05-09T08:32:08;9.73;;;2.80;;
18411;SDS011;27097;51.738;19.472;2023-05-09T08:34:35;5.15;;;2.92;;
18411;SDS011;27097;51.738;19.472;2023-05-09T08:37:05;9.73;;;3.00;;
18411;SDS011;27097;51.738;19.472;2023-05-09T08:39:31;7.32;;;2.63;;
18411;SDS011;27097;51.738;19.472;2023-05-09T08:42:00;8.27;;;2.70;;
18411;SDS011;27097;51.738;19.472;2023-05-09T08:44:29;8.10;;;2.47;;
18411;SDS011;27097;51.738;19.472;2023-05-09T08:46:57;9.10;;;2.65;;
18411;SDS011;27097;51.738;19.472;2023-05-09T08:49:25;14.57;;;3.10;;
18411;SDS011;27097;51.738;19.472;2023-05-09T08:51:53;10.07;;;3.33;;
18411;SDS011;27097;51.738;19.472;2023-05-09T08:54:20;9.15;;;2.72;;
18411;SDS011;27097;51.738;19.472;2023-05-09T08:56:48;9.02;;;2.63;;
18411;SDS011;27097;51.738;19.472;2023-05-09T08:59:15;11.48;;;2.97;;
18411;SDS011;27097;51.738;19.472;2023-05-09T09:01:45;7.45;;;2.92;;
18411;SDS011;27097;51.738;19.472;2023-05-09T09:04:27;12.45;;;2.78;;
18411;SDS011;27097;51.738;19.472;2023-05-09T09:07:04;7.28;;;2.35;;
18411;SDS011;27097;51.738;19.472;2023-05-09T09:09:32;10.60;;;2.50;;
18411;SDS011;27097;51.738;19.472;2023-05-09T09:12:01;8.70;;;2.65;;
18411;SDS011;27097;51.738;19.472;2023-05-09T09:14:31;9.55;;;2.58;;
18411;SDS011;27097;51.738;19.472;2023-05-09T09:17:04;5.93;;;2.45;;
18411;SDS011;27097;51.738;19.472;2023-05-09T09:19:47;13.85;;;2.70;;
18411;SDS011;27097;51.738;19.472;2023-05-09T09:22:22;7.57;;;2.50;;
18411;SDS011;27097;51.738;19.472;2023-05-09T09:24:50;8.48;;;2.47;;
18411;SDS011;27097;51.738;19.472;2023-05-09T09:27:16;7.28;;;2.75;;
18411;SDS011;27097;51.738;19.472;2023-05-09T09:29:43;5.80;;;2.55;;
18411;SDS011;27097;51.738;19.472;2023-05-09T09:32:11;9.68;;;2.38;;
18411;SDS011;27097;51.738;19.472;2023-05-09T09:34:45;5.32;;;2.30;;
18411;SDS011;27097;51.738;19.472;2023-05-09T09:37:20;4.50;;;2.55;;
18411;SDS011;27097;51.738;19.472;2023-05-09T09:39:57;8.45;;;2.50;;
18411;SDS011;27097;51.738;19.472;2023-05-09T09:42:24;8.05;;;2.42;;
18411;SDS011;27097;51.738;19.472;2023-05-09T09:44:54;6.65;;;2.42;;
18411;SDS011;27097;51.738;19.472;2023-05-09T09:47:32;4.45;;;2.35;;
18411;SDS011;27097;51.738;19.472;2023-05-09T09:50:03;5.00;;;1.92;;
18411;SDS011;27097;51.738;19.472;2023-05-09T09:52:48;9.02;;;2.53;;
18411;SDS011;27097;51.738;19.472;2023-05-09T09:55:18;5.40;;;2.25;;
18411;SDS011;27097;51.738;19.472;2023-05-09T09:57:46;6.85;;;2.40;;
18411;SDS011;27097;51.738;19.472;2023-05-09T10:00:14;4.30;;;2.15;;
18411;SDS011;27097;51.738;19.472;2023-05-09T10:02:50;4.88;;;2.15;;
18411;SDS011;27097;51.738;19.472;2023-05-09T10:05:18;8.95;;;2.55;;
18411;SDS011;27097;51.738;19.472;2023-05-09T10:07:48;5.18;;;2.10;;
18411;SDS011;27097;51.738;19.472;2023-05-09T10:10:17;8.05;;;3.05;;
18411;SDS011;27097;51.738;19.472;2023-05-09T10:12:44;8.45;;;2.47;;
18411;SDS011;27097;51.738;19.472;2023-05-09T10:15:12;6.82;;;2.45;;
18411;SDS011;27097;51.738;19.472;2023-05-09T10:17:45;4.15;;;2.60;;
18411;SDS011;27097;51.738;19.472;2023-05-09T10:25:37;13.20;;;2.60;;
18411;SDS011;27097;51.738;19.472;2023-05-09T10:28:21;5.82;;;2.58;;
18411;SDS011;27097;51.738;19.472;2023-05-09T10:30:54;9.02;;;2.20;;
18411;SDS011;27097;51.738;19.472;2023-05-09T10:33:35;4.68;;;2.30;;
18411;SDS011;27097;51.738;19.472;2023-05-09T10:36:08;3.50;;;2.40;;
18411;SDS011;27097;51.738;19.472;2023-05-09T10:38:41;5.85;;;2.63;;
18411;SDS011;27097;51.738;19.472;2023-05-09T10:41:09;7.45;;;2.20;;
18411;SDS011;27097;51.738;19.472;2023-05-09T10:43:36;5.43;;;2.47;;
18411;SDS011;27097;51.738;19.472;2023-05-09T10:46:19;5.47;;;2.15;;
18411;SDS011;27097;51.738;19.472;2023-05-09T10:51:49;7.07;;;2.40;;
18411;SDS011;27097;51.738;19.472;2023-05-09T10:54:24;5.63;;;2.38;;
18411;SDS011;27097;51.738;19.472;2023-05-09T10:56:53;6.20;;;2.22;;
18411;SDS011;27097;51.738;19.472;2023-05-09T10:59:32;4.65;;;2.33;;
18411;SDS011;27097;51.738;19.472;2023-05-09T11:02:02;4.75;;;2.35;;
18411;SDS011;27097;51.738;19.472;2023-05-09T11:04:29;3.22;;;2.17;;
18411;SDS011;27097;51.738;19.472;2023-05-09T11:06:59;7.65;;;2.25;;
18411;SDS011;27097;51.738;19.472;2023-05-09T11:09:27;3.30;;;2.10;;
18411;SDS011;27097;51.738;19.472;2023-05-09T11:11:58;3.08;;;2.30;;
18411;SDS011;27097;51.738;19.472;2023-05-09T11:14:42;3.88;;;2.42;;
18411;SDS011;27097;51.738;19.472;2023-05-09T11:17:26;3.67;;;2.17;;
18411;SDS011;27097;51.738;19.472;2023-05-09T11:19:58;2.90;;;2.15;;
18411;SDS011;27097;51.738;19.472;2023-05-09T11:22:29;6.93;;;2.45;;
18411;SDS011;27097;51.738;19.472;2023-05-09T11:25:01;4.78;;;2.30;;
18411;SDS011;27097;51.738;19.472;2023-05-09T11:27:35;4.40;;;1.83;;
18411;SDS011;27097;51.738;19.472;2023-05-09T11:30:08;3.75;;;2.25;;
18411;SDS011;27097;51.738;19.472;2023-05-09T11:32:40;2.75;;;2.03;;
18411;SDS011;27097;51.738;19.472;2023-05-09T11:35:09;4.03;;;2.10;;
18411;SDS011;27097;51.738;19.472;2023-05-09T11:40:26;3.80;;;2.10;;
18411;SDS011;27097;51.738;19.472;2023-05-09T11:42:54;6.65;;;2.40;;
18411;SDS011;27097;51.738;19.472;2023-05-09T11:45:23;5.93;;;2.25;;
18411;SDS011;27097;51.738;19.472;2023-05-09T11:47:51;4.55;;;2.33;;
18411;SDS011;27097;51.738;19.472;2023-05-09T11:50:19;2.63;;;2.13;;
18411;SDS011;27097;51.738;19.472;2023-05-09T11:52:48;9.07;;;3.25;;
18411;SDS011;27097;51.738;19.472;2023-05-09T11:55:16;4.13;;;2.28;;
18411;SDS011;27097;51.738;19.472;2023-05-09T11:57:46;6.13;;;2.47;;
18411;SDS011;27097;51.738;19.472;2023-05-09T12:00:17;3.70;;;2.10;;
18411;SDS011;27097;51.738;19.472;2023-05-09T12:02:45;7.50;;;2.65;;
18411;SDS011;27097;51.738;19.472;2023-05-09T12:05:14;7.55;;;2.28;;
18411;SDS011;27097;51.738;19.472;2023-05-09T12:07:42;4.07;;;2.20;;
18411;SDS011;27097;51.738;19.472;2023-05-09T12:10:14;4.20;;;2.20;;
18411;SDS011;27097;51.738;19.472;2023-05-09T12:12:45;3.28;;;2.10;;
18411;SDS011;27097;51.738;19.472;2023-05-09T12:15:12;5.53;;;2.40;;
18411;SDS011;27097;51.738;19.472;2023-05-09T12:17:40;5.03;;;2.15;;
18411;SDS011;27097;51.738;19.472;2023-05-09T12:20:08;5.68;;;2.30;;
18411;SDS011;27097;51.738;19.472;2023-05-09T12:22:41;7.75;;;2.17;;
18411;SDS011;27097;51.738;19.472;2023-05-09T12:25:09;3.53;;;2.20;;
18411;SDS011;27097;51.738;19.472;2023-05-09T12:27:41;5.45;;;2.30;;
18411;SDS011;27097;51.738;19.472;2023-05-09T12:30:08;9.38;;;2.47;;
18411;SDS011;27097;51.738;19.472;2023-05-09T12:32:38;6.40;;;2.22;;
18411;SDS011;27097;51.738;19.472;2023-05-09T12:35:07;4.25;;;2.08;;
18411;SDS011;27097;51.738;19.472;2023-05-09T12:37:37;5.68;;;2.30;;
18411;SDS011;27097;51.738;19.472;2023-05-09T12:40:17;4.70;;;2.40;;
18411;SDS011;27097;51.738;19.472;2023-05-09T12:42:53;2.80;;;2.17;;
18411;SDS011;27097;51.738;19.472;2023-05-09T12:48:28;2.88;;;2.38;;
18411;SDS011;27097;51.738;19.472;2023-05-09T12:51:01;6.55;;;2.45;;
18411;SDS011;27097;51.738;19.472;2023-05-09T12:53:28;4.65;;;2.40;;
18411;SDS011;27097;51.738;19.472;2023-05-09T12:55:59;5.85;;;2.40;;
18411;SDS011;27097;51.738;19.472;2023-05-09T12:58:29;3.70;;;2.33;;
18411;SDS011;27097;51.738;19.472;2023-05-09T13:00:57;4.05;;;2.17;;
18411;SDS011;27097;51.738;19.472;2023-05-09T13:03:25;4.35;;;2.30;;
18411;SDS011;27097;51.738;19.472;2023-05-09T13:05:55;7.07;;;2.60;;
18411;SDS011;27097;51.738;19.472;2023-05-09T13:08:23;3.20;;;2.13;;
18411;SDS011;27097;51.738;19.472;2023-05-09T13:10:50;7.32;;;2.50;;
18411;SDS011;27097;51.738;19.472;2023-05-09T13:13:20;4.20;;;2.70;;
18411;SDS011;27097;51.738;19.472;2023-05-09T13:15:51;11.25;;;2.58;;
18411;SDS011;27097;51.738;19.472;2023-05-09T13:18:18;3.20;;;2.30;;
18411;SDS011;27097;51.738;19.472;2023-05-09T13:20:45;6.07;;;2.50;;
18411;SDS011;27097;51.738;19.472;2023-05-09T13:23:12;3.88;;;2.58;;
18411;SDS011;27097;51.738;19.472;2023-05-09T13:25:39;6.85;;;2.70;;
18411;SDS011;27097;51.738;19.472;2023-05-09T13:28:06;2.92;;;2.33;;
18411;SDS011;27097;51.738;19.472;2023-05-09T13:34:11;4.97;;;2.65;;
18411;SDS011;27097;51.738;19.472;2023-05-09T13:36:38;5.70;;;2.63;;
18411;SDS011;27097;51.738;19.472;2023-05-09T13:39:05;4.43;;;2.58;;
18411;SDS011;27097;51.738;19.472;2023-05-09T13:41:32;2.65;;;2.40;;
18411;SDS011;27097;51.738;19.472;2023-05-09T13:43:58;4.82;;;2.47;;
18411;SDS011;27097;51.738;19.472;2023-05-09T13:46:25;3.15;;;2.38;;
18411;SDS011;27097;51.738;19.472;2023-05-09T13:48:57;5.53;;;2.55;;
18411;SDS011;27097;51.738;19.472;2023-05-09T13:51:25;4.78;;;2.60;;
18411;SDS011;27097;51.738;19.472;2023-05-09T13:53:53;3.03;;;2.33;;
18411;SDS011;27097;51.738;19.472;2023-05-09T13:56:19;3.85;;;2.50;;
18411;SDS011;27097;51.738;19.472;2023-05-09T13:58:46;4.45;;;2.30;;
18411;SDS011;27097;51.738;19.472;2023-05-09T14:04:16;4.47;;;2.22;;
18411;SDS011;27097;51.738;19.472;2023-05-09T14:06:47;2.85;;;2.47;;
18411;SDS011;27097;51.738;19.472;2023-05-09T14:09:14;4.50;;;2.50;;
18411;SDS011;27097;51.738;19.472;2023-05-09T14:11:41;4.03;;;2.42;;
18411;SDS011;27097;51.738;19.472;2023-05-09T14:14:08;4.85;;;2.72;;
18411;SDS011;27097;51.738;19.472;2023-05-09T14:16:35;3.80;;;2.47;;
18411;SDS011;27097;51.738;19.472;2023-05-09T14:19:02;3.38;;;2.30;;
18411;SDS011;27097;51.738;19.472;2023-05-09T14:21:31;4.78;;;2.42;;
18411;SDS011;27097;51.738;19.472;2023-05-09T14:23:59;3.28;;;2.25;;
18411;SDS011;27097;51.738;19.472;2023-05-09T14:26:26;2.45;;;2.05;;
18411;SDS011;27097;51.738;19.472;2023-05-09T14:28:53;3.70;;;2.30;;
18411;SDS011;27097;51.738;19.472;2023-05-09T14:31:19;7.72;;;2.20;;
18411;SDS011;27097;51.738;19.472;2023-05-09T14:33:46;9.98;;;2.83;;
18411;SDS011;27097;51.738;19.472;2023-05-09T14:36:13;14.10;;;2.88;;
18411;SDS011;27097;51.738;19.472;2023-05-09T14:38:40;15.23;;;3.28;;
18411;SDS011;27097;51.738;19.472;2023-05-09T14:41:09;11.93;;;2.88;;
18411;SDS011;27097;51.738;19.472;2023-05-09T14:43:36;15.48;;;2.60;;
18411;SDS011;27097;51.738;19.472;2023-05-09T14:46:03;16.20;;;2.60;;
18411;SDS011;27097;51.738;19.472;2023-05-09T14:48:30;11.07;;;2.42;;
18411;SDS011;27097;51.738;19.472;2023-05-09T14:50:57;9.38;;;2.75;;
18411;SDS011;27097;51.738;19.472;2023-05-09T14:53:24;14.32;;;2.60;;
18411;SDS011;27097;51.738;19.472;2023-05-09T14:55:52;11.20;;;3.13;;
18411;SDS011;27097;51.738;19.472;2023-05-09T14:58:24;7.72;;;2.70;;
18411;SDS011;27097;51.738;19.472;2023-05-09T15:00:51;18.08;;;2.65;;
18411;SDS011;27097;51.738;19.472;2023-05-09T15:03:18;12.43;;;2.80;;
18411;SDS011;27097;51.738;19.472;2023-05-09T15:06:01;13.25;;;2.67;;
18411;SDS011;27097;51.738;19.472;2023-05-09T15:08:41;12.75;;;2.42;;
18411;SDS011;27097;51.738;19.472;2023-05-09T15:11:08;11.90;;;2.75;;
18411;SDS011;27097;51.738;19.472;2023-05-09T15:13:49;12.48;;;2.83;;
18411;SDS011;27097;51.738;19.472;2023-05-09T15:16:27;10.20;;;2.72;;
18411;SDS011;27097;51.738;19.472;2023-05-09T15:18:53;10.05;;;3.13;;
18411;SDS011;27097;51.738;19.472;2023-05-09T15:21:28;7.13;;;2.30;;
18411;SDS011;27097;51.738;19.472;2023-05-09T15:24:03;9.55;;;2.50;;
18411;SDS011;27097;51.738;19.472;2023-05-09T15:26:39;9.85;;;2.10;;
18411;SDS011;27097;51.738;19.472;2023-05-09T15:29:14;10.77;;;2.63;;
18411;SDS011;27097;51.738;19.472;2023-05-09T15:31:41;9.63;;;2.25;;
18411;SDS011;27097;51.738;19.472;2023-05-09T15:34:08;10.23;;;2.50;;
18411;SDS011;27097;51.738;19.472;2023-05-09T15:36:42;14.07;;;2.45;;
18411;SDS011;27097;51.738;19.472;2023-05-09T15:39:09;7.20;;;2.42;;
18411;SDS011;27097;51.738;19.472;2023-05-09T15:41:39;10.68;;;2.35;;
18411;SDS011;27097;51.738;19.472;2023-05-09T15:44:07;15.48;;;3.22;;
18411;SDS011;27097;51.738;19.472;2023-05-09T15:46:39;29.88;;;6.82;;
18411;SDS011;27097;51.738;19.472;2023-05-09T15:55:43;12.73;;;3.80;;
18411;SDS011;27097;51.738;19.472;2023-05-09T15:58:10;12.43;;;3.65;;
18411;SDS011;27097;51.738;19.472;2023-05-09T16:00:49;16.80;;;3.45;;
18411;SDS011;27097;51.738;19.472;2023-05-09T16:03:20;11.70;;;3.20;;
18411;SDS011;27097;51.738;19.472;2023-05-09T16:05:47;12.65;;;3.90;;
18411;SDS011;27097;51.738;19.472;2023-05-09T16:08:14;5.55;;;3.17;;